Time;durP1;ratioP1;P1;durP2;ratioP2;P2;SDS_P1;SDS_P2;PMS_P1;PMS_P2;Temp;Humidity;BMP_temperature;BMP_pressure;BME280_temperature;BME280_humidity;BME280_pressure;Samples;Min_cycle;Max_cycle;Signal;HPM_P1;HPM_P2
2022/07/09 00:04:22;;;;;;;2.33;1.40;;;;;;;17.40;56.07;97753.00;10392467;28;20045;-25
2022/07/09 00:09:22;;;;;;;6.43;1.80;;;;;;;17.36;56.40;97747.00;10398370;28;20037;-24
2022/07/09 00:14:23;;;;;;;5.43;1.67;;;;;;;17.30;56.22;97751.03;10390875;28;20028;-23
2022/07/09 00:19:23;;;;;;;4.43;2.10;;;;;;;17.23;55.67;97728.97;10397333;28;20041;-24
2022/07/09 00:24:24;;;;;;;4.73;1.70;;;;;;;17.29;55.87;97739.19;10394521;28;20586;-24
2022/07/09 00:29:24;;;;;;;4.43;1.63;;;;;;;17.33;56.01;97746.88;10399153;28;20296;-26
2022/07/09 00:34:24;;;;;;;6.23;2.03;;;;;;;17.31;55.75;97735.06;10392978;28;20021;-25
2022/07/09 00:39:25;;;;;;;7.93;1.97;;;;;;;17.35;55.47;97729.22;10394253;28;20041;-25
2022/07/09 00:44:26;;;;;;;6.35;1.80;;;;;;;17.36;55.05;97723.34;10386896;28;20029;-25
2022/07/09 00:49:29;;;;;;;4.63;1.70;;;;;;;17.35;55.05;97714.91;10391272;28;20033;-24
2022/07/09 00:54:29;;;;;;;5.10;1.67;;;;;;;17.26;55.07;97693.59;10386601;28;20040;-26
2022/07/09 00:59:30;;;;;;;5.22;1.40;;;;;;;17.32;54.89;97708.91;10389984;28;20032;-25
2022/07/09 01:04:31;;;;;;;5.03;1.80;;;;;;;17.27;54.82;97701.22;10390226;28;20033;-24
2022/07/09 01:09:32;;;;;;;3.47;1.37;;;;;;;17.24;54.99;97695.25;10388469;28;20056;-26
2022/07/09 01:14:32;;;;;;;3.25;1.30;;;;;;;17.21;55.05;97700.22;10393838;28;20038;-25
2022/07/09 01:19:34;;;;;;;3.92;1.40;;;;;;;17.15;54.71;97697.59;10390522;28;20034;-23
2022/07/09 01:24:34;;;;;;;4.00;1.50;;;;;;;17.17;55.13;97694.25;10395000;28;20030;-24
2022/07/09 01:29:35;;;;;;;3.55;1.42;;;;;;;17.18;55.33;97695.13;10399844;28;20022;-25
2022/07/09 01:34:36;;;;;;;2.73;1.27;;;;;;;17.22;55.36;97695.22;10394863;28;20025;-24
2022/07/09 01:39:49;;;;;;;2.45;1.33;;;;;;;17.17;55.81;97683.28;10397463;28;20036;-24
2022/07/09 01:44:50;;;;;;;2.40;1.40;;;;;;;17.05;55.27;97694.00;10402261;28;20076;-24
2022/07/09 01:49:50;;;;;;;3.53;1.33;;;;;;;17.09;55.48;97679.75;10400821;28;20492;-25
2022/07/09 01:54:51;;;;;;;1.87;1.20;;;;;;;17.06;55.65;97675.47;10400972;28;20033;-24
2022/07/09 01:59:51;;;;;;;5.63;1.25;;;;;;;17.03;55.57;97669.50;10398182;28;20120;-23
2022/07/09 02:04:52;;;;;;;3.05;1.05;;;;;;;17.05;54.99;97667.84;10400216;28;20116;-24
2022/07/09 02:09:52;;;;;;;2.83;1.48;;;;;;;17.03;55.58;97659.38;10401984;28;20037;-23
2022/07/09 02:14:53;;;;;;;2.88;1.40;;;;;;;17.02;55.59;97652.63;10396578;28;20029;-23
2022/07/09 02:19:53;;;;;;;5.43;1.20;;;;;;;17.03;55.50;97657.72;10403176;28;20037;-23
2022/07/09 02:24:54;;;;;;;2.60;1.10;;;;;;;16.97;55.85;97655.06;10400039;28;20116;-23
2022/07/09 02:29:54;;;;;;;5.15;1.40;;;;;;;16.85;55.94;97636.25;10405777;28;20044;-23
2022/07/09 02:34:55;;;;;;;4.00;1.37;;;;;;;16.98;55.98;97654.22;10394816;28;20029;-24
2022/07/09 02:39:55;;;;;;;3.40;1.03;;;;;;;16.99;55.45;97658.47;10397473;28;20029;-24
2022/07/09 02:44:55;;;;;;;5.65;1.45;;;;;;;16.95;55.66;97663.41;10403638;28;20037;-24
2022/07/09 02:49:56;;;;;;;5.67;1.63;;;;;;;16.88;55.96;97659.06;10397848;28;20033;-24
2022/07/09 02:54:57;;;;;;;3.90;1.08;;;;;;;16.72;55.71;97639.34;10397112;28;20084;-23
2022/07/09 02:59:57;;;;;;;4.65;1.40;;;;;;;16.84;56.44;97657.28;10394498;28;20029;-23
2022/07/09 03:04:57;;;;;;;4.97;1.10;;;;;;;16.70;55.60;97645.19;10396540;28;20038;-22
2022/07/09 03:09:58;;;;;;;3.28;1.60;;;;;;;16.80;55.87;97645.38;10397144;28;20052;-24
2022/07/09 03:14:59;;;;;;;3.75;1.20;;;;;;;16.75;56.03;97652.03;10398153;28;20499;-23
2022/07/09 03:20:00;;;;;;;6.87;1.43;;;;;;;16.63;55.61;97636.59;10396972;28;20048;-24
2022/07/09 03:25:00;;;;;;;4.85;1.40;;;;;;;16.72;55.80;97657.06;10399699;28;20468;-24
2022/07/09 03:30:02;;;;;;;3.83;1.80;;;;;;;16.74;55.71;97655.41;10399876;28;20025;-24
2022/07/09 03:35:03;;;;;;;3.15;1.02;;;;;;;16.75;55.44;97652.03;10393423;28;20563;-24
2022/07/09 03:40:04;;;;;;;3.80;1.30;;;;;;;16.73;56.11;97663.81;10396826;28;20040;-22
2022/07/09 03:45:05;;;;;;;3.85;0.93;;;;;;;16.73;56.12;97662.94;10399352;28;20372;-24
2022/07/09 03:50:06;;;;;;;2.58;1.15;;;;;;;16.68;55.91;97665.38;10395463;28;20033;-22
2022/07/09 03:55:07;;;;;;;3.92;1.30;;;;;;;16.61;55.31;97650.88;10395216;28;20496;-23
2022/07/09 04:00:08;;;;;;;5.28;1.33;;;;;;;16.65;55.85;97660.25;10389408;28;20037;-22
2022/07/09 04:05:14;;;;;;;5.53;1.10;;;;;;;16.64;56.13;97670.31;10392186;28;20531;-23
2022/07/09 04:10:15;;;;;;;2.70;1.10;;;;;;;16.65;56.04;97674.56;10394160;28;20033;-23
2022/07/09 04:15:15;;;;;;;5.10;1.27;;;;;;;16.59;56.78;97675.28;10395289;28;20044;-24
2022/07/09 04:20:15;;;;;;;2.50;1.17;;;;;;;16.51;56.75;97676.78;10388995;28;20709;-22
2022/07/09 04:25:16;;;;;;;5.40;1.30;;;;;;;16.58;56.55;97681.16;10394747;28;20342;-24
2022/07/09 04:30:16;;;;;;;3.92;1.20;;;;;;;16.67;55.96;97679.66;10401295;28;20044;-24
2022/07/09 04:35:17;;;;;;;3.07;1.30;;;;;;;16.69;55.37;97682.25;10391852;28;20079;-22
2022/07/09 04:40:17;;;;;;;3.27;1.10;;;;;;;16.80;55.67;97675.72;10393294;28;20779;-23
2022/07/09 04:45:18;;;;;;;5.80;1.83;;;;;;;16.80;55.63;97683.31;10398827;28;20495;-22
2022/07/09 04:50:18;;;;;;;2.40;1.33;;;;;;;16.76;56.02;97673.97;10398021;28;20539;-23
2022/07/09 04:55:19;;;;;;;3.70;1.58;;;;;;;16.67;56.02;97687.25;10384699;28;20514;-22
2022/07/09 05:00:19;;;;;;;4.35;1.50;;;;;;;16.80;56.67;97683.31;10392899;28;20033;-23
2022/07/09 05:05:23;;;;;;;5.18;1.58;;;;;;;16.93;56.13;97677.72;10391323;28;20408;-24
2022/07/09 05:10:23;;;;;;;4.75;1.27;;;;;;;16.81;56.32;97677.47;10388871;28;20104;-23
2022/07/09 05:15:23;;;;;;;6.07;1.55;;;;;;;16.95;56.05;97681.13;10395326;28;20025;-22
2022/07/09 05:20:24;;;;;;;2.30;1.10;;;;;;;16.94;56.45;97674.38;10411059;28;20087;-23
2022/07/09 05:25:25;;;;;;;2.22;1.10;;;;;;;17.04;56.10;97678.78;10397142;28;20036;-23
2022/07/09 05:30:25;;;;;;;4.07;1.30;;;;;;;17.04;55.76;97689.78;10397573;28;20035;-22
2022/07/09 05:35:25;;;;;;;5.20;1.10;;;;;;;17.07;56.22;97686.47;10388820;28;20072;-23
2022/07/09 05:40:26;;;;;;;3.30;1.10;;;;;;;17.10;56.40;97683.97;10384944;28;20077;-23
2022/07/09 05:45:26;;;;;;;2.17;0.90;;;;;;;17.23;56.13;97678.38;10394338;28;20025;-22
2022/07/09 05:50:27;;;;;;;3.00;1.27;;;;;;;17.22;56.21;97681.69;10384580;28;20034;-23
2022/07/09 05:55:27;;;;;;;5.20;1.42;;;;;;;17.21;56.07;97673.25;10396349;28;20056;-21
2022/07/09 06:00:28;;;;;;;6.13;1.30;;;;;;;17.35;56.68;97665.94;10391380;28;20029;-23
2022/07/09 06:05:28;;;;;;;1.87;1.23;;;;;;;17.51;56.41;97673.03;10385471;28;20033;-23
2022/07/09 06:10:29;;;;;;;3.33;1.20;;;;;;;17.60;56.30;97666.47;10389999;28;20292;-23
2022/07/09 06:15:30;;;;;;;3.25;1.30;;;;;;;17.65;56.81;97664.03;10389688;28;20029;-23
2022/07/09 06:20:31;;;;;;;3.60;1.38;;;;;;;17.73;56.69;97660.78;10397434;28;20520;-21
2022/07/09 06:25:31;;;;;;;4.88;1.85;;;;;;;17.92;56.32;97669.56;10397790;28;20030;-22
2022/07/09 06:30:33;;;;;;;3.88;1.40;;;;;;;17.98;55.95;97670.53;10398106;28;20753;-22
2022/07/09 06:35:34;;;;;;;3.97;1.20;;;;;;;17.98;55.95;97664.63;10391766;28;20524;-22
2022/07/09 06:40:34;;;;;;;4.07;1.60;;;;;;;18.05;56.68;97666.41;10400130;28;20026;-22
2022/07/09 06:45:35;;;;;;;8.07;1.83;;;;;;;18.24;55.96;97658.28;10400365;28;20095;-23
2022/07/09 06:50:36;;;;;;;4.40;1.50;;;;;;;18.44;55.26;97657.81;10396952;28;20041;-22
2022/07/09 06:55:36;;;;;;;6.30;1.77;;;;;;;18.48;54.71;97658.66;10388011;28;20435;-22
2022/07/09 07:00:37;;;;;;;6.95;1.13;;;;;;;18.46;54.74;97651.06;10398300;28;20041;-22
2022/07/09 07:05:37;;;;;;;3.47;1.25;;;;;;;18.49;54.64;97660.41;10393218;28;20041;-22
2022/07/09 07:10:37;;;;;;;3.83;1.10;;;;;;;18.49;54.67;97661.22;10394896;28;20221;-22
2022/07/09 07:15:38;;;;;;;2.50;1.10;;;;;;;18.50;54.52;97652.78;10395197;28;20296;-22
2022/07/09 07:20:38;;;;;;;3.80;1.10;;;;;;;18.51;54.55;97638.44;10397082;28;20044;-22
2022/07/09 07:25:38;;;;;;;2.63;1.10;;;;;;;18.54;54.53;97641.00;10392714;28;20030;-22
2022/07/09 07:30:39;;;;;;;2.63;1.03;;;;;;;18.56;54.37;97644.41;10401400;28;20042;-22
2022/07/09 07:35:39;;;;;;;2.17;1.33;;;;;;;18.56;54.33;97646.94;10394614;28;20029;-23
2022/07/09 07:40:40;;;;;;;2.00;1.55;;;;;;;18.56;54.26;97646.94;10398392;28;20917;-24
2022/07/09 07:45:40;;;;;;;2.65;1.10;;;;;;;18.63;54.17;97643.69;10398522;28;20106;-23
2022/07/09 07:50:40;;;;;;;4.37;1.53;;;;;;;18.76;53.67;97640.50;10391350;28;20042;-23
2022/07/09 07:55:41;;;;;;;1.75;1.08;;;;;;;18.79;53.78;97640.53;10392192;28;20117;-23
2022/07/09 08:00:42;;;;;;;3.08;1.00;;;;;;;18.68;54.02;97631.94;10394324;28;20111;-22
2022/07/09 08:05:42;;;;;;;3.65;1.00;;;;;;;18.68;54.21;97631.94;10392060;28;20029;-22
2022/07/09 08:10:42;;;;;;;3.17;1.10;;;;;;;18.66;54.36;97629.34;10393555;28;20037;-22
2022/07/09 08:15:44;;;;;;;2.40;0.90;;;;;;;18.67;54.37;97630.22;10395467;28;20500;-23
2022/07/09 08:20:44;;;;;;;3.08;1.40;;;;;;;18.67;54.33;97628.53;10392685;28;20049;-24
2022/07/09 08:25:44;;;;;;;1.23;1.00;;;;;;;18.67;54.47;97620.91;10394615;28;20080;-23
2022/07/09 08:30:45;;;;;;;1.23;0.87;;;;;;;18.67;54.49;97615.00;10400050;28;20029;-25
2022/07/09 08:35:45;;;;;;;1.30;1.00;;;;;;;18.49;54.37;97584.31;10388523;28;20029;-23
2022/07/09 08:40:46;;;;;;;2.03;0.90;;;;;;;18.63;54.60;97605.63;10390703;28;20040;-23
2022/07/09 08:45:48;;;;;;;2.92;0.80;;;;;;;18.71;54.29;97616.72;10396889;28;20084;-23
2022/07/09 08:50:50;;;;;;;3.92;1.05;;;;;;;18.87;53.14;97611.03;10387083;28;20034;-22
2022/07/09 08:55:51;;;;;;;2.65;1.25;;;;;;;18.94;52.88;97606.06;10397178;28;20057;-24
2022/07/09 09:00:51;;;;;;;1.77;0.90;;;;;;;18.87;53.86;97603.41;10391755;28;20048;-23
2022/07/09 09:06:01;;;;;;;1.98;0.75;;;;;;;18.80;54.13;97599.09;10397987;28;20021;-24
2022/07/09 09:11:03;;;;;;;1.90;1.00;;;;;;;18.69;54.25;97582.91;10396502;28;20076;-23
2022/07/09 09:16:06;;;;;;;1.52;0.65;;;;;;;18.77;54.54;97591.44;10397422;28;20037;-23
2022/07/09 09:21:08;;;;;;;1.95;0.82;;;;;;;18.77;54.35;97581.31;10394194;28;20040;-23
2022/07/09 09:26:14;;;;;;;3.55;0.90;;;;;;;18.75;54.38;97585.53;10393415;28;20030;-23
2022/07/09 09:31:23;;;;;;;4.03;1.50;;;;;;;18.77;54.27;97581.31;10393678;28;20431;-22
2022/07/09 09:36:37;;;;;;;2.10;0.90;;;;;;;18.77;54.47;97571.16;10393084;28;20037;-22
2022/07/09 09:41:39;;;;;;;1.92;0.90;;;;;;;18.77;54.34;97568.63;10393704;28;20072;-24
2022/07/09 09:46:40;;;;;;;2.08;0.90;;;;;;;18.77;54.44;97571.16;10388914;28;20522;-22
2022/07/09 09:51:51;;;;;;;3.47;1.02;;;;;;;18.93;53.46;97571.34;10396088;28;20034;-21
2022/07/09 09:56:53;;;;;;;1.58;0.88;;;;;;;19.05;53.26;97575.72;10401958;28;20488;-23
2022/07/09 10:01:54;;;;;;;1.90;1.02;;;;;;;18.99;53.86;97575.66;10391370;28;20408;-22
2022/07/09 10:06:54;;;;;;;1.38;0.82;;;;;;;18.91;54.35;97567.94;10397459;28;20048;-24
2022/07/09 10:11:54;;;;;;;1.90;0.83;;;;;;;18.88;54.43;97569.59;10401162;28;20159;-23
2022/07/09 10:16:55;;;;;;;1.23;0.67;;;;;;;18.88;54.65;97569.59;10402591;28;20287;-24
2022/07/09 10:21:57;;;;;;;1.97;1.00;;;;;;;18.88;54.70;97564.50;10399695;28;20032;-23
2022/07/09 10:27:08;;;;;;;1.38;0.98;;;;;;;18.85;54.75;97559.41;10404497;28;20552;-22
2022/07/09 10:32:08;;;;;;;3.08;0.90;;;;;;;18.89;54.68;97556.06;10401749;28;20091;-23
2022/07/09 10:37:09;;;;;;;0.97;0.90;;;;;;;18.89;54.83;97545.91;10397172;28;20099;-24
2022/07/09 10:42:19;;;;;;;0.70;0.70;;;;;;;18.88;54.97;97546.75;10388883;28;20033;-24
2022/07/09 10:47:20;;;;;;;2.92;1.02;;;;;;;18.88;55.11;97545.09;10402209;28;20300;-23
2022/07/09 10:52:30;;;;;;;4.70;1.73;;;;;;;19.03;55.15;97545.25;10405259;28;20025;-23
2022/07/09 10:57:30;;;;;;;4.75;1.58;;;;;;;19.14;54.57;97533.53;10394576;28;20462;-23
2022/07/09 11:02:30;;;;;;;5.03;1.03;;;;;;;19.05;55.26;97533.44;10399854;28;20086;-23
2022/07/09 11:07:32;;;;;;;3.63;1.08;;;;;;;19.04;55.11;97528.34;10400836;28;20048;-22
2022/07/09 11:12:33;;;;;;;3.22;0.82;;;;;;;19.06;55.19;97516.50;10390250;28;20034;-21
2022/07/09 11:17:33;;;;;;;2.60;0.85;;;;;;;19.05;55.20;97518.19;10395183;28;20026;-20
2022/07/09 11:22:33;;;;;;;1.97;0.80;;;;;;;19.05;55.20;97513.13;10397193;28;20214;-22
2022/07/09 11:27:39;;;;;;;7.23;1.20;;;;;;;19.04;55.30;97508.88;10403586;28;20040;-22
2022/07/09 11:32:42;;;;;;;1.27;1.10;;;;;;;19.01;55.14;97500.38;10395777;28;20420;-22
2022/07/09 11:37:46;;;;;;;1.65;0.73;;;;;;;19.04;55.29;97511.44;10392792;28;20433;-23
2022/07/09 11:42:46;;;;;;;1.10;0.80;;;;;;;19.04;55.28;97506.34;10393956;28;20037;-20
2022/07/09 11:47:47;;;;;;;4.90;1.38;;;;;;;19.04;55.57;97503.81;10396077;28;20388;-23
2022/07/09 11:52:50;;;;;;;6.15;1.63;;;;;;;19.19;56.47;97503.97;10393791;28;20045;-24
2022/07/09 11:57:53;;;;;;;6.10;1.65;;;;;;;19.27;56.23;97499.81;10397039;28;20029;-22
2022/07/09 12:02:54;;;;;;;2.03;1.38;;;;;;;19.20;55.12;97505.72;10396688;28;20025;-21
2022/07/09 12:07:54;;;;;;;2.53;1.17;;;;;;;19.10;54.83;97490.31;10391751;28;20069;-23
2022/07/09 12:12:56;;;;;;;2.67;0.95;;;;;;;19.12;55.34;97476.81;10397725;28;20037;-22
2022/07/09 12:17:58;;;;;;;2.38;0.88;;;;;;;19.12;55.41;97483.56;10392194;28;20146;-22
2022/07/09 12:22:58;;;;;;;1.88;0.82;;;;;;;19.13;55.29;97475.13;10396056;28;20076;-22
2022/07/09 12:27:59;;;;;;;3.72;1.20;;;;;;;19.12;55.29;97475.97;10401980;28;20117;-24
2022/07/09 12:32:59;;;;;;;3.95;1.38;;;;;;;19.13;55.33;97470.03;10389175;28;20033;-22
2022/07/09 12:37:59;;;;;;;1.47;0.80;;;;;;;19.13;55.41;97462.44;10393916;28;20072;-22
2022/07/09 12:43:00;;;;;;;2.17;0.90;;;;;;;19.13;55.51;97464.97;10394655;28;20031;-22
2022/07/09 12:48:00;;;;;;;1.30;0.97;;;;;;;19.13;55.22;97464.97;10390559;28;20022;-22
2022/07/09 12:53:00;;;;;;;2.80;1.30;;;;;;;19.21;56.74;97445.59;10391378;28;20030;-21
2022/07/09 12:58:01;;;;;;;6.80;1.83;;;;;;;19.28;56.34;97434.66;10387734;28;20087;-23
2022/07/09 13:03:01;;;;;;;1.00;0.85;;;;;;;19.18;55.24;97430.34;10390456;28;20029;-21
2022/07/09 13:08:02;;;;;;;4.18;1.08;;;;;;;19.20;55.29;97436.28;10393383;28;20416;-22
2022/07/09 13:13:02;;;;;;;1.73;1.17;;;;;;;19.17;55.39;97436.25;10391402;28;20037;-23
2022/07/09 13:18:03;;;;;;;1.43;0.70;;;;;;;19.09;55.51;97417.56;10389823;28;20056;-23
2022/07/09 13:23:03;;;;;;;2.77;1.00;;;;;;;19.14;55.64;97426.91;10400241;28;20569;-24
2022/07/09 13:28:04;;;;;;;1.90;1.10;;;;;;;19.14;55.42;97436.19;10395015;28;20421;-22
2022/07/09 13:33:04;;;;;;;1.10;0.60;;;;;;;19.14;55.52;97426.03;10383871;28;20523;-22
2022/07/09 13:38:05;;;;;;;1.57;0.90;;;;;;;19.12;55.51;97417.56;10395539;28;20037;-22
2022/07/09 13:43:05;;;;;;;1.52;0.90;;;;;;;19.15;55.67;97426.06;10395741;28;20507;-22
2022/07/09 13:48:05;;;;;;;2.35;0.85;;;;;;;19.16;55.57;97409.16;10396701;28;20412;-21
2022/07/09 13:53:06;;;;;;;2.23;1.00;;;;;;;19.31;56.38;97409.28;10389331;28;20037;-21
2022/07/09 13:58:07;;;;;;;2.27;1.30;;;;;;;19.41;55.88;97411.09;10394184;28;20550;-22
2022/07/09 14:03:07;;;;;;;2.90;0.85;;;;;;;19.30;54.84;97412.69;10393335;28;20088;-23
2022/07/09 14:08:08;;;;;;;3.90;0.73;;;;;;;19.24;55.35;97408.41;10392779;28;20404;-24
2022/07/09 14:13:09;;;;;;;2.45;0.95;;;;;;;19.22;56.18;97399.06;10395317;28;20351;-21
2022/07/09 14:18:10;;;;;;;1.20;0.70;;;;;;;19.21;55.82;97392.28;10390358;28;20089;-24
2022/07/09 14:23:10;;;;;;;3.13;0.67;;;;;;;19.19;55.78;97388.91;10384125;28;20037;-21
2022/07/09 14:28:10;;;;;;;2.47;1.10;;;;;;;19.20;55.66;97385.53;10395672;28;20668;-22
2022/07/09 14:33:11;;;;;;;5.27;1.50;;;;;;;19.20;56.06;97373.69;10386794;28;20038;-22
2022/07/09 14:38:12;;;;;;;2.92;1.10;;;;;;;19.39;56.81;97377.19;10388248;28;20450;-22
2022/07/09 14:43:12;;;;;;;1.80;1.10;;;;;;;19.43;56.47;97379.75;10401781;28;20404;-23
2022/07/09 14:48:13;;;;;;;1.83;0.80;;;;;;;19.32;55.68;97365.28;10407212;28;20040;-22
2022/07/09 14:53:13;;;;;;;1.63;0.75;;;;;;;19.24;55.77;97372.88;10391316;28;20068;-22
2022/07/09 14:58:14;;;;;;;2.77;0.73;;;;;;;19.26;56.10;97377.97;10405142;28;20037;-21
2022/07/09 15:03:14;;;;;;;0.80;0.70;;;;;;;19.25;55.94;97374.56;10399189;28;20427;-21
2022/07/09 15:08:15;;;;;;;1.77;0.87;;;;;;;19.23;56.04;97366.09;10394042;28;20041;-21
2022/07/09 15:13:15;;;;;;;1.48;0.85;;;;;;;19.24;56.09;97364.41;10392845;28;20064;-21
2022/07/09 15:18:15;;;;;;;1.30;1.00;;;;;;;19.23;56.09;97358.47;10395357;28;20100;-21
2022/07/09 15:23:16;;;;;;;1.38;0.77;;;;;;;19.23;56.07;97357.59;10389979;28;20400;-23
2022/07/09 15:28:16;;;;;;;0.82;0.70;;;;;;;19.23;55.97;97361.00;10383546;28;20033;-24
2022/07/09 15:33:17;;;;;;;7.47;1.40;;;;;;;19.40;57.28;97358.56;10384640;28;20042;-23
2022/07/09 15:38:17;;;;;;;4.05;1.52;;;;;;;19.49;57.33;97349.34;10393220;28;20786;-23
2022/07/09 15:43:18;;;;;;;1.63;0.77;;;;;;;19.34;55.91;97334.00;10396005;28;20037;-22
2022/07/09 15:48:22;;;;;;;1.97;0.80;;;;;;;19.32;55.88;97347.50;10394372;28;20746;-22
2022/07/09 15:53:22;;;;;;;1.30;1.00;;;;;;;19.25;56.04;97343.25;10396470;28;20030;-22
2022/07/09 15:58:22;;;;;;;2.85;1.00;;;;;;;19.27;55.96;97337.34;10392957;28;20037;-23
2022/07/09 16:03:23;;;;;;;0.60;0.60;;;;;;;19.26;56.07;97328.03;10400413;28;20071;-22
2022/07/09 16:08:23;;;;;;;2.80;0.87;;;;;;;19.26;56.17;97332.28;10389127;28;20029;-23
2022/07/09 16:13:24;;;;;;;1.25;0.77;;;;;;;19.27;56.22;97331.44;10390674;28;20426;-22
2022/07/09 16:18:25;;;;;;;1.38;0.80;;;;;;;19.25;56.34;97333.94;10396604;28;20397;-21
2022/07/09 16:23:25;;;;;;;2.20;0.70;;;;;;;19.26;56.12;97337.34;10391596;28;20037;-22
2022/07/09 16:28:26;;;;;;;2.10;1.07;;;;;;;19.31;56.87;97336.53;10396533;28;20061;-23
2022/07/09 16:33:26;;;;;;;3.57;1.63;;;;;;;19.49;56.87;97333.28;10393147;28;20030;-23
2022/07/09 16:38:27;;;;;;;1.13;0.93;;;;;;;19.55;56.53;97323.13;10395665;28;20026;-24
2022/07/09 16:43:27;;;;;;;1.30;0.90;;;;;;;19.40;55.61;97328.97;10385453;28;20037;-23
2022/07/09 16:48:27;;;;;;;3.07;0.80;;;;;;;19.34;55.86;97326.38;10395949;28;20363;-22
2022/07/09 16:53:28;;;;;;;2.27;1.10;;;;;;;19.31;56.03;97323.84;10387767;28;20281;-22
2022/07/09 16:58:32;;;;;;;5.73;2.30;;;;;;;19.32;56.46;97319.59;10389525;28;20137;-24
2022/07/09 17:03:32;;;;;;;10.00;1.70;;;;;;;19.31;56.52;97317.88;10395279;28;20380;-23
2022/07/09 17:08:33;;;;;;;3.60;0.80;;;;;;;19.32;56.34;97319.59;10393287;28;20060;-22
2022/07/09 17:13:33;;;;;;;3.17;0.80;;;;;;;19.30;56.34;97322.13;10395696;28;20035;-24
2022/07/09 17:18:34;;;;;;;2.80;0.97;;;;;;;19.25;56.36;97297.56;10389078;28;20034;-21
2022/07/09 17:23:35;;;;;;;4.47;1.60;;;;;;;19.52;58.07;97307.88;10391210;28;20300;-22
2022/07/09 17:28:35;;;;;;;2.80;1.30;;;;;;;19.40;56.63;97269.69;10396842;28;20032;-23
2022/07/09 17:33:36;;;;;;;2.90;0.80;;;;;;;19.46;56.00;97303.63;10386801;28;20428;-23
2022/07/09 17:38:36;;;;;;;1.83;0.70;;;;;;;19.36;56.01;97301.00;10392490;28;20400;-22
2022/07/09 17:43:36;;;;;;;2.92;0.80;;;;;;;19.34;56.05;97312.84;10390746;28;20456;-24
2022/07/09 17:48:37;;;;;;;2.47;0.77;;;;;;;19.27;56.36;97303.50;10395591;28;20037;-23
2022/07/09 17:53:40;;;;;;;1.87;0.87;;;;;;;19.31;56.27;97308.59;10390278;28;20646;-24
2022/07/09 17:58:40;;;;;;;1.23;0.85;;;;;;;19.31;56.23;97312.81;10394345;28;20041;-21
2022/07/09 18:03:41;;;;;;;1.03;0.83;;;;;;;19.31;56.44;97308.59;10390906;28;20041;-23
2022/07/09 18:08:41;;;;;;;1.33;0.70;;;;;;;19.31;56.38;97306.06;10390651;28;20034;-23
2022/07/09 18:13:41;;;;;;;1.05;0.80;;;;;;;19.32;56.38;97304.34;10386420;28;20503;-22
2022/07/09 18:18:42;;;;;;;1.17;1.07;;;;;;;19.46;56.85;97297.66;10396030;28;20038;-22
2022/07/09 18:23:44;;;;;;;2.27;1.70;;;;;;;19.62;57.88;97307.06;10398180;28;20053;-21
2022/07/09 18:28:45;;;;;;;1.77;0.80;;;;;;;19.50;56.48;97299.41;10398368;28;20491;-22
2022/07/09 18:33:46;;;;;;;2.38;0.75;;;;;;;19.41;56.07;97304.44;10390601;28;20084;-26
2022/07/09 18:38:48;;;;;;;1.45;0.70;;;;;;;19.40;56.29;97306.13;10396836;28;20439;-22
2022/07/09 18:43:48;;;;;;;1.23;0.70;;;;;;;19.39;56.44;97311.16;10394317;28;20061;-22
2022/07/09 18:48:48;;;;;;;1.60;0.60;;;;;;;19.37;56.46;97312.84;10402401;28;20115;-23
2022/07/09 18:53:49;;;;;;;0.90;0.80;;;;;;;19.37;56.37;97310.31;10392886;28;20091;-23
2022/07/09 18:58:49;;;;;;;2.00;0.87;;;;;;;19.37;56.29;97310.31;10395193;28;20038;-22
2022/07/09 19:03:50;;;;;;;2.38;1.00;;;;;;;19.37;56.41;97307.78;10400977;28;20076;-23
2022/07/09 19:08:51;;;;;;;2.13;1.02;;;;;;;19.37;56.29;97307.78;10408444;28;20045;-23
2022/07/09 19:13:53;;;;;;;3.55;1.30;;;;;;;19.52;58.29;97306.16;10398455;28;20171;-23
2022/07/09 19:18:53;;;;;;;2.45;1.02;;;;;;;19.64;57.94;97310.47;10393047;28;20037;-23
2022/07/09 19:23:54;;;;;;;0.88;0.70;;;;;;;19.58;56.40;97318.06;10394961;28;20025;-22
2022/07/09 19:28:54;;;;;;;1.83;0.73;;;;;;;19.46;56.28;97321.41;10397539;28;20046;-23
2022/07/09 19:34:00;;;;;;;2.50;0.82;;;;;;;19.41;56.35;97324.75;10393654;28;20092;-22
2022/07/09 19:39:02;;;;;;;2.15;0.70;;;;;;;19.40;56.50;97335.72;10397209;28;20104;-23
2022/07/09 19:44:05;;;;;;;0.77;0.75;;;;;;;19.38;56.37;97329.78;10399152;28;20618;-22
2022/07/09 19:49:06;;;;;;;1.13;0.70;;;;;;;19.38;56.48;97329.78;10397516;28;20527;-22
2022/07/09 19:54:07;;;;;;;0.98;0.50;;;;;;;19.37;56.49;97333.19;10393022;28;20036;-22
2022/07/09 19:59:08;;;;;;;1.65;0.70;;;;;;;19.36;56.59;97336.56;10391261;28;20092;-22
2022/07/09 20:04:09;;;;;;;0.93;0.50;;;;;;;19.35;56.57;97340.78;10388389;28;20038;-22
2022/07/09 20:09:10;;;;;;;1.10;1.00;;;;;;;19.50;57.66;97345.13;10386775;28;20045;-23
2022/07/09 20:14:11;;;;;;;1.50;0.98;;;;;;;19.63;57.88;97339.25;10398899;28;20037;-24
2022/07/09 20:19:11;;;;;;;1.27;0.77;;;;;;;19.62;56.50;97340.97;10389295;28;20404;-24
2022/07/09 20:24:12;;;;;;;2.60;0.75;;;;;;;19.49;56.51;97338.34;10393643;28;20420;-22
2022/07/09 20:29:12;;;;;;;0.95;0.70;;;;;;;19.44;56.46;97330.66;10392346;28;20476;-22
2022/07/09 20:34:13;;;;;;;1.58;1.00;;;;;;;19.26;56.75;97329.72;10393529;28;20017;-24
2022/07/09 20:39:13;;;;;;;1.60;1.00;;;;;;;19.19;56.45;97335.59;10392499;28;20026;-25
2022/07/09 20:44:14;;;;;;;2.97;1.20;;;;;;;19.16;56.88;97333.03;10391219;28;20095;-23
2022/07/09 20:49:14;;;;;;;2.10;1.23;;;;;;;19.15;57.00;97332.16;10396548;28;20307;-25
2022/07/09 20:54:15;;;;;;;4.20;0.93;;;;;;;19.12;56.85;97341.44;10392856;28;20442;-23
2022/07/09 20:59:15;;;;;;;3.45;1.08;;;;;;;19.07;57.05;97343.06;10390049;28;20033;-23
2022/07/09 21:04:15;;;;;;;1.83;0.80;;;;;;;19.03;56.91;97338.81;10393700;28;20026;-23
2022/07/09 21:09:16;;;;;;;3.13;1.10;;;;;;;19.00;57.11;97344.72;10391149;28;20029;-23
2022/07/09 21:14:16;;;;;;;1.87;1.10;;;;;;;18.95;57.10;97338.78;10394730;28;20261;-22
2022/07/09 21:19:16;;;;;;;2.37;1.20;;;;;;;18.91;57.54;97331.97;10388019;28;20167;-24
2022/07/09 21:24:17;;;;;;;2.23;1.20;;;;;;;18.92;57.63;97340.44;10393983;28;20086;-23
2022/07/09 21:29:17;;;;;;;2.45;1.30;;;;;;;18.94;57.74;97341.28;10392334;28;20113;-23
2022/07/09 21:34:18;;;;;;;2.33;1.30;;;;;;;18.91;57.48;97336.22;10388765;28;20367;-23
2022/07/09 21:39:19;;;;;;;2.50;1.67;;;;;;;18.86;57.56;97341.25;10395929;28;20041;-23
2022/07/09 21:44:19;;;;;;;1.92;1.20;;;;;;;18.83;57.57;97320.91;10395512;28;20307;-23
2022/07/09 21:49:20;;;;;;;5.77;1.20;;;;;;;18.78;57.73;97330.19;10392420;28;20026;-25
2022/07/09 21:54:20;;;;;;;1.53;1.10;;;;;;;18.75;57.71;97319.16;10394440;28;20112;-24
2022/07/09 21:59:20;;;;;;;2.13;1.00;;;;;;;18.67;57.62;97315.72;10394733;28;20391;-24
2022/07/09 22:04:21;;;;;;;2.57;1.10;;;;;;;18.61;57.52;97293.69;10397411;28;20087;-23
2022/07/09 22:09:21;;;;;;;1.43;1.07;;;;;;;18.65;57.84;97314.81;10393460;28;20040;-24
2022/07/09 22:14:22;;;;;;;1.88;1.30;;;;;;;18.62;57.95;97314.81;10400555;28;20037;-25
2022/07/09 22:19:22;;;;;;;5.28;1.65;;;;;;;18.60;57.91;97308.88;10394182;28;20033;-22
2022/07/09 22:24:22;;;;;;;2.90;1.43;;;;;;;18.59;58.17;97304.66;10401597;28;20063;-24
2022/07/09 22:29:23;;;;;;;2.67;1.73;;;;;;;18.58;58.36;97305.47;10404478;28;20083;-25
2022/07/09 22:34:23;;;;;;;1.60;1.43;;;;;;;18.56;58.69;97307.13;10398011;28;20377;-23
2022/07/09 22:39:24;;;;;;;3.07;1.50;;;;;;;18.60;58.09;97293.66;10399621;28;20292;-24
2022/07/09 22:44:24;;;;;;;2.55;1.75;;;;;;;18.57;58.26;97293.63;10402757;28;20033;-22
2022/07/09 22:49:24;;;;;;;2.87;1.73;;;;;;;18.57;58.27;97288.56;10401312;28;20103;-23
2022/07/09 22:54:25;;;;;;;1.83;1.50;;;;;;;18.53;58.25;97287.69;10400832;28;20793;-25
2022/07/09 22:59:26;;;;;;;2.00;1.50;;;;;;;18.49;58.58;97297.78;10392010;28;20731;-22
2022/07/09 23:04:26;;;;;;;4.05;1.60;;;;;;;18.46;58.63;97292.69;10396631;28;20395;-23
2022/07/09 23:09:27;;;;;;;3.42;1.42;;;;;;;18.49;58.78;97296.09;10402299;28;20467;-23
2022/07/09 23:14:27;;;;;;;1.97;1.77;;;;;;;18.45;58.83;97293.50;10398662;28;20108;-25
2022/07/09 23:19:27;;;;;;;3.80;1.50;;;;;;;18.44;58.73;97285.06;10395447;28;20025;-24